createdAt,value
2018-09-21T00:00:24.066Z,15.30
2018-09-21T00:02:51.742Z,15.30
2018-09-21T00:05:19.474Z,15.30
2018-09-21T00:07:47.175Z,15.20
2018-09-21T00:10:14.828Z,15.20
2018-09-21T00:12:42.523Z,15.20
2018-09-21T00:15:10.223Z,15.20
2018-09-21T00:17:37.846Z,15.20
2018-09-21T00:20:05.559Z,15.10
2018-09-21T00:22:33.251Z,15.10
2018-09-21T00:25:00.935Z,15.20
2018-09-21T00:27:29.683Z,15.10
2018-09-21T00:29:57.370Z,15.10
2018-09-21T00:32:25.047Z,15.10
2018-09-21T00:34:52.759Z,15.20
2018-09-21T00:37:20.432Z,15.10
2018-09-21T00:39:48.135Z,15.10
2018-09-21T00:42:15.855Z,15.10
2018-09-21T00:44:43.566Z,15.10
2018-09-21T00:47:11.238Z,15.10
2018-09-21T00:49:39.047Z,15.00
2018-09-21T00:52:07.211Z,15.00
2018-09-21T00:54:34.962Z,15.00
2018-09-21T00:57:02.699Z,15.00
2018-09-21T00:59:30.590Z,14.90
2018-09-21T01:01:58.291Z,14.90
2018-09-21T01:04:28.972Z,15.00
2018-09-21T01:06:56.659Z,15.00
2018-09-21T01:09:24.322Z,14.90
2018-09-21T01:11:52.012Z,14.80
2018-09-21T01:14:19.695Z,14.80
2018-09-21T01:16:47.396Z,14.80
2018-09-21T01:19:15.113Z,14.80
2018-09-21T01:21:42.766Z,14.80
2018-09-21T01:24:10.379Z,14.80
2018-09-21T01:26:38.060Z,14.80
2018-09-21T01:29:05.754Z,14.70
2018-09-21T01:31:33.463Z,14.70
2018-09-21T01:34:01.167Z,14.70
2018-09-21T01:36:28.915Z,14.60
2018-09-21T01:38:56.679Z,14.60
2018-09-21T01:41:24.301Z,14.60
2018-09-21T01:43:51.983Z,14.60
2018-09-21T01:46:19.735Z,14.60
2018-09-21T01:48:47.494Z,14.60
2018-09-21T01:51:15.254Z,14.60
2018-09-21T01:53:42.982Z,14.50
2018-09-21T01:56:10.682Z,14.50
2018-09-21T01:58:38.355Z,14.50
2018-09-21T02:01:06.031Z,14.50
2018-09-21T02:03:37.134Z,14.50
2018-09-21T02:06:04.814Z,14.50
2018-09-21T02:08:32.596Z,14.50
2018-09-21T02:11:00.379Z,14.40
2018-09-21T02:13:28.099Z,14.40
2018-09-21T02:15:55.850Z,14.40
2018-09-21T02:18:23.470Z,14.30
2018-09-21T02:20:51.204Z,14.40
2018-09-21T02:23:18.846Z,14.30
2018-09-21T02:25:46.555Z,14.30
2018-09-21T02:28:14.219Z,14.30
2018-09-21T02:30:41.964Z,14.20
2018-09-21T02:33:09.642Z,14.00
2018-09-21T02:35:37.307Z,14.00
2018-09-21T02:38:05.311Z,14.00
2018-09-21T02:40:33.031Z,14.00
2018-09-21T02:43:00.719Z,13.90
2018-09-21T02:45:28.459Z,14.00
2018-09-21T02:47:56.084Z,13.90
2018-09-21T02:50:23.707Z,13.90
2018-09-21T02:52:51.343Z,14.00
2018-09-21T02:55:18.968Z,14.00
2018-09-21T02:57:46.699Z,14.10
2018-09-21T03:00:14.357Z,14.00
2018-09-21T03:02:42.064Z,13.90
2018-09-21T03:05:09.831Z,13.90
2018-09-21T03:07:37.514Z,13.90
2018-09-21T03:10:05.226Z,13.90
2018-09-21T03:12:32.887Z,13.90
2018-09-21T03:15:00.619Z,13.90
2018-09-21T03:17:28.413Z,13.80
2018-09-21T03:19:56.174Z,13.80
2018-09-21T03:22:23.822Z,13.70
2018-09-21T03:24:51.454Z,13.70
2018-09-21T03:27:19.212Z,13.70
2018-09-21T03:29:46.954Z,13.70
2018-09-21T03:32:14.623Z,13.70
2018-09-21T03:34:42.311Z,13.80
2018-09-21T03:37:09.954Z,13.80
2018-09-21T03:39:37.679Z,13.80
2018-09-21T03:42:05.414Z,13.80
2018-09-21T03:44:33.124Z,13.80
2018-09-21T03:47:01.875Z,13.70
2018-09-21T03:49:29.536Z,13.70
2018-09-21T03:51:57.156Z,13.70
2018-09-21T03:54:24.898Z,13.70
2018-09-21T03:56:52.511Z,13.70
2018-09-21T03:59:20.130Z,13.60
2018-09-21T04:01:47.797Z,13.60
2018-09-21T04:04:18.595Z,13.70
2018-09-21T04:06:46.346Z,13.80
2018-09-21T04:09:14.042Z,13.90
2018-09-21T04:11:41.714Z,13.80
2018-09-21T04:14:09.404Z,13.90
2018-09-21T04:16:37.098Z,13.80
2018-09-21T04:19:04.864Z,13.90
2018-09-21T04:21:32.555Z,13.80
2018-09-21T04:24:00.281Z,13.70
2018-09-21T04:26:27.994Z,13.80
2018-09-21T04:28:55.690Z,13.90
2018-09-21T04:31:23.366Z,13.80
2018-09-21T04:33:51.035Z,13.80
2018-09-21T04:36:18.655Z,13.80
2018-09-21T04:38:46.272Z,13.80
2018-09-21T04:41:13.993Z,13.80
2018-09-21T04:43:41.686Z,13.90
2018-09-21T04:46:09.376Z,13.80
2018-09-21T04:48:37.067Z,13.90
2018-09-21T04:51:04.822Z,13.90
2018-09-21T04:53:32.592Z,14.00
2018-09-21T04:56:00.296Z,14.00
2018-09-21T04:58:27.956Z,13.90
2018-09-21T05:00:55.584Z,14.00
2018-09-21T05:03:23.335Z,14.00
2018-09-21T05:05:51.059Z,14.00
2018-09-21T05:08:18.811Z,13.90
2018-09-21T05:10:46.488Z,13.90
2018-09-21T05:13:14.243Z,13.90
2018-09-21T05:15:41.923Z,13.90
2018-09-21T05:18:13.370Z,13.90
2018-09-21T05:20:41.210Z,13.90
2018-09-21T05:23:08.927Z,14.10
2018-09-21T05:25:36.640Z,14.10
2018-09-21T05:28:04.663Z,14.10
2018-09-21T05:30:32.378Z,14.10
2018-09-21T05:33:00.068Z,14.10
2018-09-21T05:35:27.671Z,14.20
2018-09-21T05:37:55.338Z,14.20
2018-09-21T05:40:23.027Z,14.20
2018-09-21T05:42:50.788Z,14.20
2018-09-21T05:45:18.527Z,14.30
2018-09-21T05:47:46.192Z,14.30
2018-09-21T05:50:13.891Z,14.40
2018-09-21T05:52:41.555Z,14.40
2018-09-21T05:55:09.225Z,14.40
2018-09-21T05:57:36.947Z,14.40
2018-09-21T06:00:04.715Z,14.50
2018-09-21T06:02:32.457Z,14.60
2018-09-21T06:05:05.218Z,14.70
2018-09-21T06:07:33.387Z,14.70
2018-09-21T06:10:01.059Z,14.80
2018-09-21T06:12:28.739Z,14.90
2018-09-21T06:14:56.462Z,15.00
2018-09-21T06:17:24.288Z,15.10
2018-09-21T06:19:51.439Z,15.20
2018-09-21T06:22:18.539Z,15.30
2018-09-21T06:24:45.554Z,15.40
2018-09-21T06:27:12.606Z,15.50
2018-09-21T06:29:39.627Z,15.60
2018-09-21T06:32:06.743Z,15.70
2018-09-21T06:34:33.787Z,15.80
2018-09-21T06:37:00.835Z,15.90
2018-09-21T06:39:27.874Z,16.00
2018-09-21T06:41:54.945Z,16.00
2018-09-21T06:44:22.006Z,16.10
2018-09-21T06:46:49.109Z,16.20
2018-09-21T06:49:16.183Z,16.30
2018-09-21T06:51:43.272Z,16.40
2018-09-21T06:54:10.406Z,16.50
2018-09-21T06:56:37.518Z,16.60
2018-09-21T06:59:04.667Z,16.70
2018-09-21T07:01:31.811Z,16.70
2018-09-21T07:03:58.864Z,16.80
2018-09-21T07:06:25.972Z,16.90
2018-09-21T07:08:53.066Z,17.00
2018-09-21T07:11:20.178Z,17.00
2018-09-21T07:13:47.202Z,17.10
2018-09-21T07:16:14.242Z,17.10
2018-09-21T07:18:41.302Z,17.10
2018-09-21T07:21:08.390Z,17.10
2018-09-21T07:23:35.478Z,17.10
2018-09-21T07:26:02.573Z,17.20
2018-09-21T07:28:29.666Z,17.20
2018-09-21T07:30:56.772Z,17.20
2018-09-21T07:33:23.843Z,17.30
2018-09-21T07:35:50.950Z,17.30
2018-09-21T07:38:18.043Z,17.40
2018-09-21T07:40:45.106Z,17.40
2018-09-21T07:43:12.171Z,17.50
2018-09-21T07:45:39.246Z,17.50
2018-09-21T07:48:06.350Z,17.60
2018-09-21T07:50:33.445Z,17.60
2018-09-21T07:53:00.470Z,17.70
2018-09-21T07:55:27.725Z,17.70
2018-09-21T07:57:54.765Z,17.80
2018-09-21T08:00:21.890Z,17.80
2018-09-21T08:02:48.938Z,17.80
2018-09-21T08:05:19.589Z,17.90
2018-09-21T08:07:46.748Z,17.90
2018-09-21T08:10:13.848Z,18.00
2018-09-21T08:12:40.987Z,18.00
2018-09-21T08:15:08.075Z,18.10
2018-09-21T08:17:35.307Z,18.10
2018-09-21T08:20:02.378Z,18.10
2018-09-21T08:22:29.429Z,18.20
2018-09-21T08:24:56.552Z,18.20
2018-09-21T08:27:23.595Z,18.20
2018-09-21T08:29:50.717Z,18.20
2018-09-21T08:32:17.838Z,18.30
2018-09-21T08:34:44.930Z,18.30
2018-09-21T08:37:12.115Z,18.30
2018-09-21T08:39:39.242Z,18.40
2018-09-21T08:42:06.386Z,18.50
2018-09-21T08:44:33.494Z,18.50
2018-09-21T08:47:00.614Z,18.40
2018-09-21T08:49:27.730Z,18.50
2018-09-21T08:51:54.798Z,18.50
2018-09-21T08:54:21.823Z,18.50
2018-09-21T08:56:48.935Z,18.50
2018-09-21T08:59:16.014Z,18.50
2018-09-21T09:01:43.177Z,18.60
2018-09-21T09:04:10.363Z,18.60
2018-09-21T09:06:37.495Z,18.50
2018-09-21T09:09:06.578Z,18.50
2018-09-21T09:11:33.635Z,18.60
2018-09-21T09:14:00.714Z,18.60
2018-09-21T09:16:27.738Z,18.70
2018-09-21T09:18:55.848Z,18.70
2018-09-21T09:21:22.910Z,18.80
2018-09-21T09:23:50.373Z,18.80
2018-09-21T09:26:17.511Z,18.90
2018-09-21T09:28:44.570Z,18.90
2018-09-21T09:31:11.640Z,18.90
2018-09-21T09:33:38.742Z,18.90
2018-09-21T09:36:05.951Z,19.00
2018-09-21T09:38:33.025Z,19.10
2018-09-21T09:41:00.040Z,19.20
2018-09-21T09:43:27.156Z,19.30
2018-09-21T09:45:54.134Z,19.30
2018-09-21T09:48:21.245Z,19.30
2018-09-21T09:50:48.387Z,19.50
2018-09-21T09:53:19.178Z,19.50
2018-09-21T09:55:46.246Z,19.60
2018-09-21T09:58:13.281Z,19.80
2018-09-21T10:00:45.876Z,19.80
2018-09-21T10:03:12.951Z,19.80
2018-09-21T10:05:41.814Z,19.90
2018-09-21T10:08:09.396Z,20.00
2018-09-21T10:10:36.955Z,20.10
2018-09-21T10:13:04.024Z,20.40
2018-09-21T10:15:31.142Z,20.50
2018-09-21T10:17:59.132Z,20.70
2018-09-21T10:20:26.167Z,20.70
2018-09-21T10:22:53.227Z,20.90
2018-09-21T10:25:20.287Z,20.90
2018-09-21T10:27:47.505Z,21.00
2018-09-21T10:30:14.440Z,21.00
2018-09-21T10:32:41.507Z,21.20
2018-09-21T10:35:08.643Z,21.10
2018-09-21T10:37:35.708Z,21.20
2018-09-21T10:40:02.870Z,21.30
2018-09-21T10:42:29.966Z,21.30
2018-09-21T10:44:56.970Z,21.40
2018-09-21T10:47:24.094Z,21.50
2018-09-21T10:49:51.518Z,21.60
2018-09-21T10:52:18.604Z,21.70
2018-09-21T10:54:45.677Z,21.70
2018-09-21T10:57:12.750Z,21.70
2018-09-21T10:59:39.828Z,21.60
2018-09-21T11:02:06.931Z,21.50
2018-09-21T11:04:34.033Z,21.60
2018-09-21T11:07:01.096Z,21.50
2018-09-21T11:09:28.259Z,21.60
2018-09-21T11:11:55.348Z,21.70
2018-09-21T11:14:22.478Z,21.90
2018-09-21T11:16:49.538Z,21.90
2018-09-21T11:19:16.596Z,21.90
2018-09-21T11:21:43.694Z,21.90
2018-09-21T11:24:10.758Z,21.90
2018-09-21T11:26:37.846Z,21.80
2018-09-21T11:29:04.926Z,21.80
2018-09-21T11:31:31.982Z,21.80
2018-09-21T11:33:59.095Z,21.90
2018-09-21T11:36:26.158Z,21.90
2018-09-21T11:38:53.289Z,21.80
2018-09-21T11:41:21.328Z,21.80
2018-09-21T11:43:48.397Z,21.80
2018-09-21T11:46:15.519Z,21.80
2018-09-21T11:48:42.590Z,21.90
2018-09-21T11:51:09.714Z,22.10
2018-09-21T11:53:36.727Z,22.10
2018-09-21T11:56:03.778Z,22.10
2018-09-21T11:58:30.854Z,22.20
2018-09-21T12:00:57.955Z,22.20
2018-09-21T12:03:25.034Z,22.30
2018-09-21T12:05:52.083Z,22.30
2018-09-21T12:08:19.126Z,22.20
2018-09-21T12:10:46.198Z,22.20
2018-09-21T12:13:13.250Z,22.20
2018-09-21T12:15:40.303Z,22.10
2018-09-21T12:18:07.377Z,22.10
2018-09-21T12:20:34.498Z,22.00
2018-09-21T12:23:01.731Z,21.90
2018-09-21T12:40:55.523Z,21.60
2018-09-21T12:43:22.630Z,20.80
2018-09-21T12:45:49.778Z,20.70
2018-09-21T12:48:16.806Z,20.80
2018-09-21T12:50:43.893Z,20.70
2018-09-21T12:53:10.906Z,20.70
2018-09-21T12:55:38.195Z,20.60
2018-09-21T12:58:05.304Z,20.00
2018-09-21T13:00:38.082Z,19.00
2018-09-21T13:03:05.138Z,18.40
2018-09-21T13:05:32.198Z,17.70
2018-09-21T13:07:59.255Z,17.50
2018-09-21T13:10:26.298Z,17.40
2018-09-21T13:12:53.330Z,17.20
2018-09-21T13:15:20.382Z,17.00
2018-09-21T13:17:47.495Z,17.00
2018-09-21T13:20:14.550Z,16.50
2018-09-21T13:22:41.560Z,16.40
2018-09-21T13:25:08.622Z,16.30
2018-09-21T13:27:35.702Z,16.10
2018-09-21T13:30:02.851Z,16.10
2018-09-21T13:32:30.052Z,15.90
2018-09-21T13:34:57.129Z,15.80
2018-09-21T13:37:24.233Z,15.70
2018-09-21T13:39:51.600Z,15.60
2018-09-21T13:42:18.714Z,15.60
2018-09-21T13:44:45.795Z,15.60
2018-09-21T13:47:12.821Z,15.40
2018-09-21T13:49:39.847Z,15.50
2018-09-21T13:52:06.991Z,15.50
2018-09-21T13:54:34.039Z,15.50
2018-09-21T13:57:01.151Z,15.50
2018-09-21T13:59:28.226Z,15.40
2018-09-21T14:01:55.287Z,15.20
2018-09-21T14:04:22.406Z,15.30
2018-09-21T14:06:49.491Z,15.30
2018-09-21T14:09:16.573Z,15.20
2018-09-21T14:11:43.650Z,15.10
2018-09-21T14:14:10.698Z,15.20
2018-09-21T14:16:37.776Z,15.10
2018-09-21T14:19:04.878Z,15.00
2018-09-21T14:21:31.957Z,15.10
2018-09-21T14:23:58.978Z,15.00
2018-09-21T14:26:26.142Z,15.00
2018-09-21T14:28:53.261Z,14.80
2018-09-21T14:31:20.283Z,14.90
2018-09-21T14:33:49.449Z,15.00
2018-09-21T14:36:20.254Z,15.10
2018-09-21T14:38:47.338Z,15.10
2018-09-21T14:41:14.411Z,15.10
2018-09-21T14:43:41.542Z,15.00
2018-09-21T14:46:08.656Z,15.10
2018-09-21T14:48:36.496Z,15.10
2018-09-21T14:51:04.449Z,15.20
2018-09-21T14:53:31.679Z,15.20
2018-09-21T14:55:58.756Z,15.30
2018-09-21T14:58:25.868Z,15.30
2018-09-21T15:00:52.988Z,15.30
2018-09-21T15:03:19.988Z,15.40
2018-09-21T15:05:47.042Z,15.50
2018-09-21T15:08:14.191Z,15.50
2018-09-21T15:10:41.242Z,15.60
2018-09-21T15:13:08.370Z,15.80
2018-09-21T15:15:35.470Z,15.80
2018-09-21T15:18:02.552Z,15.90
2018-09-21T15:20:29.623Z,16.00
2018-09-21T15:22:56.759Z,16.20
2018-09-21T15:25:23.845Z,16.20
2018-09-21T15:27:50.942Z,16.20
2018-09-21T15:33:10.271Z,16.20
2018-09-21T15:35:37.234Z,16.40
2018-09-21T15:38:04.332Z,16.50
2018-09-21T15:40:31.346Z,16.50
2018-09-21T15:42:58.473Z,16.40
2018-09-21T15:45:25.499Z,16.30
2018-09-21T15:47:52.567Z,16.20
2018-09-21T15:50:19.703Z,16.20
2018-09-21T15:52:46.804Z,16.20
2018-09-21T15:55:13.838Z,16.20
2018-09-21T15:57:40.954Z,16.00
2018-09-21T16:00:08.011Z,16.10
2018-09-21T16:02:35.034Z,16.10
2018-09-21T16:05:02.158Z,16.10
2018-09-21T16:07:29.210Z,16.10
2018-09-21T16:09:56.267Z,16.10
2018-09-21T16:12:23.341Z,16.10
2018-09-21T16:14:50.353Z,16.10
2018-09-21T16:17:18.491Z,16.00
2018-09-21T16:19:48.754Z,15.90
2018-09-21T16:22:15.838Z,15.90
2018-09-21T16:24:42.913Z,15.80
2018-09-21T16:27:09.958Z,15.80
2018-09-21T16:29:37.014Z,15.70
2018-09-21T16:32:04.073Z,15.70
2018-09-21T16:34:31.170Z,15.70
2018-09-21T16:36:58.261Z,15.70
2018-09-21T16:39:25.366Z,15.60
2018-09-21T16:41:52.363Z,15.50
2018-09-21T16:44:22.592Z,15.40
2018-09-21T16:46:49.671Z,15.40
2018-09-21T16:49:16.806Z,15.30
2018-09-21T16:51:43.882Z,15.30
2018-09-21T16:54:10.898Z,15.20
2018-09-21T16:56:38.022Z,15.20
2018-09-21T16:59:05.122Z,15.10
2018-09-21T17:01:32.203Z,15.10
2018-09-21T17:03:59.262Z,15.10
2018-09-21T17:06:29.749Z,15.00
2018-09-21T17:08:56.870Z,14.90
2018-09-21T17:11:24.063Z,14.90
2018-09-21T17:13:51.098Z,14.80
2018-09-21T17:16:18.198Z,14.90
2018-09-21T17:18:45.304Z,14.80
2018-09-21T17:21:12.382Z,14.80
2018-09-21T17:23:39.410Z,14.80
2018-09-21T17:26:06.649Z,14.70
2018-09-21T17:28:33.750Z,14.70
2018-09-21T17:31:00.840Z,14.70
2018-09-21T17:33:27.949Z,14.70
2018-09-21T17:35:55.000Z,14.70
2018-09-21T17:38:22.118Z,14.70
2018-09-21T17:40:49.214Z,14.70
2018-09-21T17:43:16.294Z,14.60
2018-09-21T17:45:43.592Z,14.70
2018-09-21T17:48:10.750Z,14.70
2018-09-21T17:50:37.862Z,14.70
2018-09-21T17:53:04.890Z,14.70
2018-09-21T17:55:31.965Z,14.70
2018-09-21T17:57:58.974Z,14.60
2018-09-21T18:00:26.014Z,14.50
2018-09-21T18:02:53.090Z,14.50
2018-09-21T18:05:20.170Z,14.50
2018-09-21T18:07:47.289Z,14.50
2018-09-21T18:10:14.359Z,14.50
2018-09-21T18:12:41.386Z,14.50
2018-09-21T18:15:08.397Z,14.50
2018-09-21T18:17:36.067Z,14.50
2018-09-21T18:20:03.858Z,14.40
2018-09-21T18:22:31.518Z,14.40
2018-09-21T18:24:59.254Z,14.30
2018-09-21T18:27:29.302Z,14.30
2018-09-21T18:29:56.979Z,14.20
2018-09-21T18:32:24.725Z,14.10
2018-09-21T18:34:52.290Z,14.10
2018-09-21T18:37:20.036Z,14.10
2018-09-21T18:39:47.777Z,14.10
2018-09-21T18:42:15.589Z,14.00
2018-09-21T18:44:43.406Z,14.00
2018-09-21T18:47:11.050Z,13.90
2018-09-21T18:49:39.108Z,14.00
2018-09-21T18:52:06.905Z,13.90
2018-09-21T18:54:34.685Z,13.80
2018-09-21T18:57:02.408Z,13.70
2018-09-21T18:59:31.098Z,13.70
2018-09-21T19:01:59.146Z,13.60
2018-09-21T19:04:26.858Z,13.60
2018-09-21T19:06:55.031Z,13.60
2018-09-21T19:09:23.037Z,13.70
2018-09-21T19:11:51.315Z,13.60
2018-09-21T19:14:19.767Z,13.60
2018-09-21T19:16:47.978Z,13.60
2018-09-21T19:19:15.924Z,13.50
2018-09-21T19:21:45.157Z,13.60
2018-09-21T19:24:14.351Z,13.60
2018-09-21T19:26:44.379Z,13.40
2018-09-21T19:29:13.995Z,13.40
2018-09-21T19:31:44.399Z,13.30
2018-09-21T19:34:14.379Z,13.30
2018-09-21T19:36:44.489Z,13.30
2018-09-21T19:39:14.150Z,13.30
2018-09-21T19:41:44.042Z,13.40
2018-09-21T19:44:13.906Z,13.40
2018-09-21T19:46:43.692Z,13.30
2018-09-21T19:49:13.532Z,13.30
2018-09-21T19:51:43.127Z,13.30
2018-09-21T19:54:13.201Z,13.40
2018-09-21T19:56:43.115Z,13.40
2018-09-21T19:59:12.673Z,13.40
2018-09-21T20:01:42.094Z,13.30
2018-09-21T20:04:11.966Z,13.20
2018-09-21T20:06:41.928Z,13.10
2018-09-21T20:09:12.104Z,13.10
2018-09-21T20:11:42.045Z,13.20
2018-09-21T20:14:11.781Z,13.30
2018-09-21T20:16:39.784Z,13.30
2018-09-21T20:19:07.510Z,13.30
2018-09-21T20:21:35.189Z,13.40
2018-09-21T20:24:02.879Z,13.40
2018-09-21T20:26:30.575Z,13.40
2018-09-21T20:28:58.428Z,13.50
2018-09-21T20:31:31.874Z,13.50
2018-09-21T20:33:59.547Z,13.50
2018-09-21T20:36:27.336Z,13.60
2018-09-21T20:38:55.082Z,13.60
2018-09-21T20:41:22.668Z,13.60
2018-09-21T20:43:50.330Z,13.60
2018-09-21T20:46:17.934Z,13.60
2018-09-21T20:48:45.634Z,13.60
2018-09-21T20:51:13.251Z,13.60
2018-09-21T20:53:40.863Z,13.50
2018-09-21T20:56:08.498Z,13.50
2018-09-21T20:58:36.113Z,13.50
2018-09-21T21:01:03.787Z,13.60
2018-09-21T21:03:31.438Z,13.70
2018-09-21T21:05:59.092Z,13.60
2018-09-21T21:08:26.817Z,13.60
2018-09-21T21:10:54.494Z,13.60
2018-09-21T21:13:22.272Z,13.60
2018-09-21T21:15:50.868Z,13.70
2018-09-21T21:18:18.867Z,13.70
2018-09-21T21:20:46.583Z,13.70
2018-09-21T21:23:18.019Z,13.70
2018-09-21T21:25:45.700Z,13.60
2018-09-21T21:28:13.426Z,13.60
2018-09-21T21:30:41.058Z,13.60
2018-09-21T21:33:08.759Z,13.60
2018-09-21T21:35:36.403Z,13.50
2018-09-21T21:38:04.047Z,13.50
2018-09-21T21:40:31.707Z,13.50
2018-09-21T21:42:59.322Z,13.50
2018-09-21T21:45:26.946Z,13.50
2018-09-21T21:47:54.643Z,13.50
2018-09-21T21:50:22.275Z,13.40
2018-09-21T21:52:49.946Z,13.30
2018-09-21T21:55:17.530Z,13.30
2018-09-21T21:57:45.200Z,13.30
2018-09-21T22:00:12.976Z,13.30
2018-09-21T22:02:40.651Z,13.30
2018-09-21T22:05:08.347Z,13.40
2018-09-21T22:07:37.246Z,13.40
2018-09-21T22:10:06.878Z,13.30
2018-09-21T22:12:40.087Z,13.30
2018-09-21T22:15:13.374Z,13.30
2018-09-21T22:17:40.978Z,13.20
2018-09-21T22:20:08.751Z,13.20
2018-09-21T22:22:36.434Z,13.10
2018-09-21T22:25:04.221Z,13.10
2018-09-21T22:27:31.940Z,13.00
2018-09-21T22:29:59.620Z,13.10
2018-09-21T22:32:27.250Z,13.20
2018-09-21T22:34:54.915Z,13.20
2018-09-21T22:37:26.818Z,13.20
2018-09-21T22:39:54.533Z,13.10
2018-09-21T22:42:22.279Z,13.10
2018-09-21T22:44:50.057Z,13.10
2018-09-21T22:47:17.836Z,13.10
2018-09-21T22:49:45.523Z,13.00
2018-09-21T22:52:13.182Z,13.00
2018-09-21T22:54:40.826Z,13.00
2018-09-21T22:57:08.462Z,12.90
2018-09-21T22:59:36.102Z,13.00
2018-09-21T23:02:03.805Z,12.90
2018-09-21T23:04:34.779Z,12.90
2018-09-21T23:07:02.530Z,12.80
2018-09-21T23:09:30.227Z,12.80
2018-09-21T23:11:57.903Z,12.80
2018-09-21T23:14:25.550Z,12.80
2018-09-21T23:16:56.342Z,12.90
2018-09-21T23:19:24.002Z,12.90
2018-09-21T23:21:51.698Z,12.90
2018-09-21T23:24:19.402Z,12.90
2018-09-21T23:26:47.072Z,12.80
2018-09-21T23:29:14.755Z,12.80
2018-09-21T23:31:46.181Z,12.90
2018-09-21T23:34:14.021Z,12.90
2018-09-21T23:36:41.726Z,12.90
2018-09-21T23:39:10.178Z,12.80
2018-09-21T23:41:38.477Z,12.90
2018-09-21T23:44:06.307Z,12.90
2018-09-21T23:46:33.999Z,12.90
2018-09-21T23:49:01.603Z,12.90
2018-09-21T23:51:32.938Z,12.90
2018-09-21T23:54:00.585Z,13.00
2018-09-21T23:56:28.226Z,13.00
2018-09-21T23:58:55.881Z,13.00
